Nearby METAR Reports

 

KBVO - Bartlesville, Oklahoma, USA
Distance from station: WNW 10mi, 16km
Updated: Wed, 05-Aug-2020 10:53am CDT
NOT Current
Clear
Clear
 Wind from varies
Wind: varies 7 mph , 11 km/h
Temperature: 73°F , 23°C
Dew Point: 63°F , 17°C
Humidity: 69%
Barometer: 30.08 inHg , 1018.6 hPa
Clouds: Clear
Visibility: 10 miles , 16 km
2020/08/05 15:53 KBVO 051553Z AUTO VRB06KT 10SM CLR 23/17 A3008 RMK AO2 SLP178 T02330167
KCFV - Coffeyville, Kansas, USA
Distance from station: NNE 31mi, 49km
Updated: Wed, 05-Aug-2020 12:52pm CDT
Clear
Clear
 
Temperature: 81°F , 27°C
Heat Index: 82°F , 28°C
Dew Point: 61°F , 16°C
Humidity: 51%
Barometer: 30.06 inHg , 1017.9 hPa
Clouds: Clear
Visibility: 10 miles , 16 km
2020/08/05 17:52 KCFV 051752Z AUTO 10SM CLR 27/16 A3006 RMK AO2 SLP173 T02670156 10267 20167 58006
 
KIDP - Independence, Kansas, USA
Distance from station: N 32mi, 52km
Updated: Wed, 05-Aug-2020 1:15pm CDT
Clear
Clear
 Wind from SSE
Wind: SSE 6 mph , 9 km/h
Temperature: 81°F , 27°C
Heat Index: 82°F , 28°C
Dew Point: 63°F , 17°C
Humidity: 54%
Barometer: 30.06 inHg , 1017.9 hPa
Clouds: Clear
Visibility: 10 miles , 16 km
2020/08/05 18:15 KIDP 051815Z AUTO 15005KT 10SM CLR 27/17 A3006 RMK AO2 T02670170
KGCM - Claremore, Oklahoma, USA
Distance from station: SE 35mi, 56km
Updated: Wed, 05-Aug-2020 1:15pm CDT
Mostly cloudy
Mostly cloudy
 Wind from SSW
Wind: SSW 5 mph , 7 km/h
Temperature: 77°F , 25°C
Dew Point: 54°F , 12°C
Humidity: 44%
Barometer: 30.09 inHg , 1019 hPa
Clouds: Mostly cloudy
Visibility: 10 miles , 16 km
Cloud details: Mostly cloudy 10000 ft
2020/08/05 18:15 KGCM 051815Z AUTO 21004KT 10SM BKN100 25/12 A3009 RMK AO2
 
KTUL - Tulsa, Oklahoma, USA
Distance from station: S 35mi, 56km
Updated: Wed, 05-Aug-2020 12:53pm CDT
Partly cloudy
Partly cloudy
 Wind from S
Wind: S 6 mph , 9 km/h
Temperature: 77°F , 25°C
Dew Point: 63°F , 17°C
Humidity: 61%
Barometer: 30.06 inHg , 1017.9 hPa
Clouds: Partly cloudy
Visibility: 10 miles , 16 km
Cloud details: Few Clouds 3000 ft
Partly cloudy 10000 ft
Partly cloudy 25000 ft
2020/08/05 17:53 KTUL 051753Z 18005KT 10SM FEW030 SCT100 SCT250 25/17 A3006 RMK AO2 SLP170 T02500172 10250 20178 55007
KRVS - Tulsa, Oklahoma, USA
Distance from station: S 46mi, 74km
Updated: Wed, 05-Aug-2020 10:53am CDT
NOT Current
Clear
Clear
 Wind from SSE
Wind: SSE 6 mph , 9 km/h
Temperature: 73°F , 23°C
Dew Point: 63°F , 17°C
Humidity: 69%
Barometer: 30.07 inHg , 1018.3 hPa
Clouds: Clear
Visibility: 10 miles , 16 km
2020/08/05 15:53 KRVS 051553Z 15005KT 10SM CLR 23/17 A3007 RMK AO2 SLP185 T02330167
 
KPPF - Parsons, Kansas, USA
Distance from station: NNE 48mi, 76km
Updated: Wed, 05-Aug-2020 7:52am CDT
NOT Current
Overcast
Overcast
 Wind from calm
Wind: Calm
Temperature: 63°F , 17°C
Dew Point: 55°F , 13°C
Humidity: 77%
Barometer: 30.11 inHg , 1019.6 hPa
Clouds: Overcast
Visibility: 10 miles , 16 km
Cloud details: Overcast 8000 ft
2020/08/05 12:52 KPPF 051252Z AUTO 00000KT 10SM OVC080 17/13 A3011 RMK AO2 SLP189 T01720133
KGMJ - Grove, Oklahoma, USA
Distance from station: E 63mi, 101km
Updated: Wed, 05-Aug-2020 1:15pm CDT
Clear
Clear
 Wind from W
Wind: W 5 mph , 7 km/h
Temperature: 79°F , 26°C
Dew Point: 61°F , 16°C
Humidity: 54%
Barometer: 30.09 inHg , 1019 hPa
Clouds: Clear
Visibility: 10 miles , 16 km
2020/08/05 18:15 KGMJ 051815Z AUTO 26004KT 10SM CLR 26/16 A3009 RMK AO2
 
KPNC - Ponca City, Oklahoma, USA
Distance from station: W 69mi, 111km
Updated: Wed, 05-Aug-2020 12:53pm CDT
Clear
Clear
 Wind from S
Wind: S 5 mph , 7 km/h
Temperature: 79°F , 26°C
Dew Point: 64°F , 18°C
Humidity: 61%
Barometer: 30.05 inHg , 1017.6 hPa
Clouds: Clear
Visibility: 10 miles , 16 km
2020/08/05 17:53 KPNC 051753Z AUTO 17004KT 10SM CLR 26/18 A3005 RMK AO2 SLP165 T02610183 10261 20172 58004
KCNU - Chanute, Kansas, USA
Distance from station: NNE 69mi, 112km
Updated: Wed, 05-Aug-2020 12:52pm CDT
Few Clouds
Few Clouds
 Wind from varies
Wind: varies 5 mph , 7 km/h
Temperature: 81°F , 27°C
Heat Index: 81°F , 27°C
Dew Point: 59°F , 15°C
Humidity: 48%
Barometer: 30.08 inHg , 1018.6 hPa
Clouds: Few Clouds
Visibility: 10 miles , 16 km
Cloud details: Few Clouds 7000 ft
2020/08/05 17:52 KCNU 051752Z AUTO VRB04KT 10SM FEW070 27/15 A3008 RMK AO2 SLP175 T02720150 10272 20167 58007